createdAt,value
2023-05-19T00:00:11.215Z,21.07
2023-05-19T00:02:38.497Z,20.89
2023-05-19T00:05:15.662Z,20.93
2023-05-19T00:07:45.578Z,20.97
2023-05-19T00:10:19.161Z,21.04
2023-05-19T00:13:05.962Z,20.95
2023-05-19T00:15:32.317Z,20.77
2023-05-19T00:17:59.798Z,20.76
2023-05-19T00:20:27.551Z,20.53
2023-05-19T00:22:56.013Z,20.76
2023-05-19T00:25:28.383Z,20.58
2023-05-19T00:26:38.354Z,20.52
2023-05-19T00:29:02.496Z,20.61
2023-05-19T00:31:35.054Z,20.65
2023-05-19T00:33:59.861Z,20.73
2023-05-19T00:36:24.826Z,20.67
2023-05-19T00:38:52.813Z,20.72
2023-05-19T00:41:18.760Z,20.76
2023-05-19T00:43:43.099Z,20.86
2023-05-19T00:44:53.655Z,20.77
2023-05-19T00:47:17.999Z,20.88
2023-05-19T00:48:27.387Z,20.73
2023-05-19T00:49:37.040Z,20.51
2023-05-19T00:50:48.410Z,20.42
2023-05-19T00:51:58.150Z,20.43
2023-05-19T00:54:23.607Z,20.51
2023-05-19T00:56:50.332Z,20.56
2023-05-19T00:58:00.722Z,20.49
2023-05-19T01:00:24.714Z,20.57
2023-05-19T01:02:52.062Z,20.74
2023-05-19T01:05:17.306Z,20.78
2023-05-19T01:07:45.299Z,20.80
2023-05-19T01:08:54.266Z,20.64
2023-05-19T01:11:21.174Z,20.84
2023-05-19T01:13:47.205Z,20.76
2023-05-19T01:16:33.793Z,20.78
2023-05-19T01:17:50.188Z,20.72
2023-05-19T01:20:26.986Z,20.81
2023-05-19T01:23:20.347Z,20.76
2023-05-19T01:26:27.406Z,20.65
2023-05-19T01:30:38.784Z,20.66
2023-05-19T01:33:09.507Z,20.73
2023-05-19T01:34:23.698Z,20.53
2023-05-19T01:35:36.126Z,20.40
2023-05-19T01:38:09.367Z,20.30
2023-05-19T01:40:38.198Z,20.30
2023-05-19T01:43:03.796Z,20.27
2023-05-19T01:44:15.158Z,20.22
2023-05-19T01:46:41.449Z,20.41
2023-05-19T01:47:54.904Z,20.19
2023-05-19T01:49:05.544Z,20.19
2023-05-19T01:50:15.692Z,20.30
2023-05-19T01:52:40.585Z,20.37
2023-05-19T01:53:50.773Z,20.04
2023-05-19T01:56:19.811Z,20.03
2023-05-19T01:58:59.695Z,20.14
2023-05-19T02:00:25.065Z,20.12
2023-05-19T02:03:10.132Z,20.36
2023-05-19T02:05:52.092Z,20.33
2023-05-19T02:08:36.140Z,20.32
2023-05-19T02:11:14.277Z,20.21
2023-05-19T02:12:35.945Z,20.17
2023-05-19T02:16:40.604Z,20.30
2023-05-19T02:19:13.236Z,20.24
2023-05-19T02:20:22.417Z,20.03
2023-05-19T02:21:31.743Z,19.99
2023-05-19T02:23:58.822Z,20.10
2023-05-19T02:26:25.749Z,20.18
2023-05-19T02:27:39.225Z,20.09
2023-05-19T02:30:09.871Z,20.03
2023-05-19T02:32:33.978Z,20.06
2023-05-19T02:33:43.935Z,20.01
2023-05-19T02:36:09.646Z,20.19
2023-05-19T02:37:19.148Z,20.08
2023-05-19T02:39:44.608Z,20.25
2023-05-19T02:42:11.858Z,20.20
2023-05-19T02:44:43.896Z,20.20
2023-05-19T02:45:54.371Z,20.12
2023-05-19T02:47:04.114Z,20.09
2023-05-19T02:49:34.067Z,20.13
2023-05-19T02:50:42.835Z,20.01
2023-05-19T02:53:06.532Z,20.13
2023-05-19T02:55:30.427Z,20.15
2023-05-19T02:56:41.375Z,20.06
2023-05-19T02:57:51.558Z,20.04
2023-05-19T02:59:01.011Z,20.10
2023-05-19T03:00:11.928Z,20.11
2023-05-19T03:02:38.399Z,20.13
2023-05-19T03:05:03.276Z,20.04
2023-05-19T03:06:14.202Z,19.87
2023-05-19T03:08:42.945Z,19.97
2023-05-19T03:09:53.758Z,19.84
2023-05-19T03:12:18.445Z,19.94
2023-05-19T03:13:28.998Z,19.89
2023-05-19T03:14:39.648Z,19.83
2023-05-19T03:15:51.165Z,19.89
2023-05-19T03:17:01.236Z,19.94
2023-05-19T03:19:27.329Z,19.99
2023-05-19T03:20:38.998Z,19.92
2023-05-19T03:21:50.301Z,19.92
2023-05-19T03:23:00.641Z,19.96
2023-05-19T03:24:10.532Z,19.87
2023-05-19T03:25:20.570Z,19.84
2023-05-19T03:26:31.423Z,19.82
2023-05-19T03:27:40.894Z,19.86
2023-05-19T03:30:06.714Z,19.82
2023-05-19T03:32:33.262Z,19.83
2023-05-19T03:33:42.998Z,19.74
2023-05-19T03:34:53.939Z,19.80
2023-05-19T03:37:19.997Z,19.82
2023-05-19T03:39:44.557Z,19.85
2023-05-19T03:40:53.889Z,19.70
2023-05-19T03:43:18.490Z,19.76
2023-05-19T03:45:45.117Z,19.79
2023-05-19T03:46:59.962Z,19.74
2023-05-19T03:49:26.527Z,19.79
2023-05-19T03:51:30.741Z,19.78
2023-05-19T03:54:39.029Z,19.82
2023-05-19T03:57:05.712Z,19.87
2023-05-19T03:58:14.841Z,19.82
2023-05-19T03:59:25.021Z,19.82
2023-05-19T04:00:34.164Z,19.89
2023-05-19T04:03:00.227Z,20.07
2023-05-19T04:05:24.629Z,20.07
2023-05-19T04:07:49.201Z,20.13
2023-05-19T04:10:13.388Z,19.86
2023-05-19T04:12:39.848Z,19.92
2023-05-19T04:13:49.588Z,19.86
2023-05-19T04:14:59.417Z,19.81
2023-05-19T04:16:08.980Z,19.82
2023-05-19T04:18:33.936Z,20.02
2023-05-19T04:20:58.203Z,20.08
2023-05-19T04:23:23.024Z,20.16
2023-05-19T04:25:49.877Z,20.04
2023-05-19T04:28:17.314Z,20.13
2023-05-19T04:30:43.438Z,19.96
2023-05-19T04:31:52.694Z,19.77
2023-05-19T04:34:19.499Z,19.82
2023-05-19T04:35:29.011Z,19.59
2023-05-19T04:37:55.066Z,19.74
2023-05-19T04:40:23.842Z,19.75
2023-05-19T04:44:10.587Z,19.50
2023-05-19T04:46:36.644Z,19.62
2023-05-19T04:49:06.450Z,19.55
2023-05-19T04:50:16.486Z,19.32
2023-05-19T04:52:47.513Z,19.42
2023-05-19T04:55:14.488Z,19.47
2023-05-19T04:56:24.726Z,19.36
2023-05-19T04:58:50.163Z,19.46
2023-05-19T05:01:17.225Z,19.69
2023-05-19T05:03:45.274Z,19.76
2023-05-19T05:06:12.418Z,19.67
2023-05-19T05:08:41.010Z,19.67
2023-05-19T05:11:07.810Z,19.70
2023-05-19T05:13:34.293Z,19.75
2023-05-19T05:15:59.287Z,19.78
2023-05-19T05:18:26.383Z,19.63
2023-05-19T05:20:53.010Z,19.73
2023-05-19T05:23:17.722Z,19.91
2023-05-19T05:24:27.941Z,19.88
2023-05-19T05:26:58.620Z,19.92
2023-05-19T05:28:14.300Z,19.87
2023-05-19T05:30:38.545Z,20.14
2023-05-19T05:31:49.455Z,20.01
2023-05-19T05:32:58.695Z,20.08
2023-05-19T05:35:28.740Z,20.20
2023-05-19T05:37:53.467Z,20.22
2023-05-19T05:40:20.939Z,20.23
2023-05-19T05:42:47.611Z,20.24
2023-05-19T05:45:13.158Z,20.17
2023-05-19T05:46:24.060Z,20.11
2023-05-19T05:47:34.508Z,20.12
2023-05-19T05:48:44.998Z,20.18
2023-05-19T05:51:10.413Z,20.41
2023-05-19T05:53:44.362Z,20.53
2023-05-19T05:54:58.714Z,20.41
2023-05-19T05:57:25.092Z,20.49
2023-05-19T05:59:50.523Z,20.57
2023-05-19T06:01:02.618Z,20.51
2023-05-19T06:03:27.132Z,20.53
2023-05-19T06:05:53.501Z,20.52
2023-05-19T06:08:20.015Z,20.66
2023-05-19T06:10:47.364Z,20.81
2023-05-19T06:13:16.423Z,20.71
2023-05-19T06:15:40.793Z,20.75
2023-05-19T06:18:09.207Z,20.77
2023-05-19T06:20:34.676Z,20.88
2023-05-19T06:23:02.101Z,20.83
2023-05-19T06:24:12.377Z,20.72
2023-05-19T06:26:36.431Z,20.93
2023-05-19T06:29:01.990Z,20.91
2023-05-19T06:31:29.164Z,21.05
2023-05-19T06:33:55.450Z,21.09
2023-05-19T06:36:20.005Z,21.14
2023-05-19T06:38:44.396Z,21.16
2023-05-19T06:41:09.655Z,21.02
2023-05-19T06:43:37.192Z,21.19
2023-05-19T06:46:04.441Z,21.34
2023-05-19T06:48:33.022Z,21.26
2023-05-19T06:50:57.650Z,21.34
2023-05-19T06:53:22.068Z,21.41
2023-05-19T06:54:32.631Z,21.35
2023-05-19T06:56:57.563Z,21.58
2023-05-19T06:58:07.976Z,21.52
2023-05-19T06:59:18.597Z,21.43
2023-05-19T07:00:27.715Z,21.39
2023-05-19T07:02:53.340Z,21.61
2023-05-19T07:04:03.796Z,21.56
2023-05-19T07:05:13.921Z,21.64
2023-05-19T07:06:23.657Z,21.70
2023-05-19T07:07:33.154Z,21.75
2023-05-19T07:08:43.298Z,21.82
2023-05-19T07:09:56.094Z,21.83
2023-05-19T07:12:21.515Z,22.11
2023-05-19T07:14:48.311Z,22.23
2023-05-19T07:17:13.549Z,22.32
2023-05-19T07:19:40.604Z,22.34
2023-05-19T07:22:08.336Z,22.41
2023-05-19T07:23:18.482Z,22.35
2023-05-19T07:25:43.624Z,22.60
2023-05-19T07:28:09.812Z,22.45
2023-05-19T07:30:43.799Z,22.67
2023-05-19T07:33:09.428Z,22.58
2023-05-19T07:35:33.618Z,22.55
2023-05-19T07:37:58.708Z,22.74
2023-05-19T07:40:23.304Z,23.12
2023-05-19T07:42:50.530Z,23.49
2023-05-19T07:45:15.564Z,23.83
2023-05-19T07:48:00.807Z,23.56
2023-05-19T07:49:10.430Z,23.27
2023-05-19T07:50:21.750Z,23.37
2023-05-19T07:52:46.384Z,23.33
2023-05-19T07:55:13.503Z,23.30
2023-05-19T07:57:41.128Z,23.38
2023-05-19T08:00:11.989Z,23.53
2023-05-19T08:02:40.080Z,23.44
2023-05-19T08:05:05.909Z,23.49
2023-05-19T08:07:31.039Z,23.68
2023-05-19T08:09:56.850Z,23.64
2023-05-19T08:12:21.313Z,23.06
2023-05-19T08:14:47.088Z,22.99
2023-05-19T08:17:14.258Z,23.25
2023-05-19T08:19:39.839Z,23.35
2023-05-19T08:20:49.461Z,23.27
2023-05-19T08:23:17.069Z,23.10
2023-05-19T08:26:07.830Z,23.40
2023-05-19T08:28:31.994Z,23.37
2023-05-19T08:30:56.341Z,22.91
2023-05-19T08:33:22.984Z,23.25
2023-05-19T08:34:33.035Z,23.25
2023-05-19T08:36:59.938Z,23.54
2023-05-19T08:39:27.068Z,23.25
2023-05-19T08:41:55.286Z,23.13
2023-05-19T08:44:19.765Z,22.55
2023-05-19T08:46:47.605Z,22.64
2023-05-19T08:49:14.252Z,22.46
2023-05-19T08:55:53.896Z,22.95
2023-05-19T08:58:23.285Z,22.43
2023-05-19T08:59:33.681Z,22.46
2023-05-19T09:00:43.760Z,22.45
2023-05-19T09:03:22.800Z,22.50
2023-05-19T09:04:29.636Z,22.42
2023-05-19T09:05:48.853Z,22.44
2023-05-19T09:08:15.607Z,22.49
2023-05-19T09:10:40.921Z,22.31
2023-05-19T09:13:07.642Z,22.46
2023-05-19T09:15:36.559Z,22.38
2023-05-19T09:18:12.983Z,22.30
2023-05-19T09:20:39.513Z,22.47
2023-05-19T09:23:08.300Z,22.65
2023-05-19T09:25:34.659Z,22.86
2023-05-19T09:28:00.149Z,22.84
2023-05-19T09:30:30.043Z,22.91
2023-05-19T09:31:39.257Z,22.90
2023-05-19T09:32:49.711Z,22.83
2023-05-19T09:35:15.859Z,22.74
2023-05-19T09:37:42.171Z,23.08
2023-05-19T09:40:13.109Z,22.88
2023-05-19T09:42:39.488Z,22.64
2023-05-19T09:43:54.639Z,22.45
2023-05-19T09:46:27.758Z,22.81
2023-05-19T09:48:59.784Z,22.77
2023-05-19T09:51:29.362Z,22.86
2023-05-19T09:53:55.493Z,22.93
2023-05-19T09:56:25.095Z,22.90
2023-05-19T09:58:55.155Z,22.97
2023-05-19T10:01:33.210Z,23.01
2023-05-19T10:04:01.234Z,22.99
2023-05-19T10:05:30.601Z,22.76
2023-05-19T10:07:45.832Z,22.79
2023-05-19T10:10:13.765Z,23.11
2023-05-19T10:13:00.742Z,23.30
2023-05-19T10:15:26.239Z,23.15
2023-05-19T10:17:51.849Z,23.35
2023-05-19T10:20:19.096Z,23.08
2023-05-19T10:22:45.734Z,22.81
2023-05-19T10:25:12.441Z,22.58
2023-05-19T10:27:44.558Z,22.64
2023-05-19T10:31:30.046Z,22.73
2023-05-19T10:32:40.024Z,22.69
2023-05-19T10:34:05.690Z,22.88
2023-05-19T10:36:52.111Z,22.97
2023-05-19T10:39:28.130Z,23.14
2023-05-19T10:42:01.419Z,23.31
2023-05-19T10:45:14.978Z,23.45
2023-05-19T10:46:28.822Z,23.24
2023-05-19T10:47:40.387Z,22.58
2023-05-19T10:50:06.974Z,22.43
2023-05-19T10:52:30.631Z,22.75
2023-05-19T10:55:12.627Z,22.64
2023-05-19T10:59:32.691Z,22.84
2023-05-19T11:01:57.638Z,23.01
2023-05-19T11:04:51.692Z,22.81
2023-05-19T11:06:28.520Z,22.78
2023-05-19T11:09:05.998Z,22.81
2023-05-19T11:11:53.421Z,22.51
2023-05-19T11:14:27.022Z,22.41
2023-05-19T11:16:59.472Z,22.35
2023-05-19T11:19:28.878Z,22.80
2023-05-19T11:21:55.378Z,22.94
2023-05-19T11:24:46.195Z,23.12
2023-05-19T11:27:24.564Z,23.28
2023-05-19T11:28:34.886Z,23.21
2023-05-19T11:31:02.873Z,23.24
2023-05-19T11:33:32.132Z,23.11
2023-05-19T11:35:58.513Z,23.25
2023-05-19T11:38:44.738Z,23.16
2023-05-19T11:41:08.504Z,23.12
2023-05-19T11:43:32.941Z,23.13
2023-05-19T11:45:58.262Z,23.08
2023-05-19T11:48:26.487Z,23.02
2023-05-19T11:50:53.054Z,23.06
2023-05-19T11:53:20.705Z,22.68
2023-05-19T11:54:33.776Z,22.64
2023-05-19T11:57:03.785Z,22.53
2023-05-19T12:00:51.115Z,22.44
2023-05-19T12:03:26.573Z,22.35
2023-05-19T12:05:52.129Z,22.67
2023-05-19T12:08:21.192Z,22.54
2023-05-19T12:10:50.559Z,22.37
2023-05-19T12:12:00.507Z,22.23
2023-05-19T12:14:27.273Z,22.40
2023-05-19T12:17:19.442Z,22.47
2023-05-19T12:19:51.684Z,22.32
2023-05-19T12:22:17.812Z,22.35
2023-05-19T12:24:48.687Z,22.61
2023-05-19T12:26:01.918Z,22.62
2023-05-19T12:28:37.550Z,22.80
2023-05-19T12:29:54.514Z,22.71
2023-05-19T12:32:21.336Z,22.96
2023-05-19T12:34:47.650Z,22.71
2023-05-19T12:37:34.586Z,22.74
2023-05-19T12:40:01.560Z,22.63
2023-05-19T12:42:31.860Z,22.51
2023-05-19T12:43:42.944Z,22.48
2023-05-19T12:46:11.933Z,22.71
2023-05-19T12:48:43.450Z,22.94
2023-05-19T12:51:18.453Z,22.63
2023-05-19T12:52:29.486Z,22.62
2023-05-19T12:55:07.069Z,22.69
2023-05-19T12:57:40.093Z,22.44
2023-05-19T13:00:12.984Z,22.21
2023-05-19T13:01:31.862Z,22.28
2023-05-19T13:04:21.491Z,22.21
2023-05-19T13:07:01.226Z,22.10
2023-05-19T13:09:29.580Z,21.90
2023-05-19T13:11:58.356Z,22.16
2023-05-19T13:14:22.686Z,21.98
2023-05-19T13:16:53.473Z,21.74
2023-05-19T13:21:53.402Z,21.74
2023-05-19T13:24:26.906Z,21.93
2023-05-19T13:26:53.980Z,21.84
2023-05-19T13:29:23.152Z,21.70
2023-05-19T13:31:49.263Z,21.79
2023-05-19T13:34:14.254Z,22.02
2023-05-19T13:36:38.703Z,22.11
2023-05-19T13:39:04.751Z,21.89
2023-05-19T13:41:30.418Z,22.10
2023-05-19T13:44:02.480Z,22.25
2023-05-19T13:46:44.945Z,22.24
2023-05-19T13:47:43.776Z,22.20
2023-05-19T13:50:07.890Z,22.34
2023-05-19T13:52:32.961Z,22.43
2023-05-19T13:54:56.950Z,21.75
2023-05-19T13:58:39.710Z,21.62
2023-05-19T14:00:00.761Z,21.43
2023-05-19T14:02:16.160Z,21.63
2023-05-19T14:03:26.114Z,21.70
2023-05-19T14:04:39.809Z,21.86
2023-05-19T14:07:07.742Z,21.95
2023-05-19T14:09:32.381Z,22.10
2023-05-19T14:12:18.649Z,22.13
2023-05-19T14:13:34.465Z,21.85
2023-05-19T14:14:40.920Z,21.99
2023-05-19T14:17:05.508Z,22.11
2023-05-19T14:19:32.120Z,21.93
2023-05-19T14:21:57.519Z,22.04
2023-05-19T14:24:24.540Z,22.12
2023-05-19T14:26:50.981Z,22.12
2023-05-19T14:29:17.213Z,22.18
2023-05-19T14:31:41.962Z,22.21
2023-05-19T14:34:28.344Z,22.24
2023-05-19T14:35:40.263Z,22.11
2023-05-19T14:38:04.547Z,22.41
2023-05-19T14:40:30.465Z,22.39
2023-05-19T14:42:55.390Z,22.50
2023-05-19T14:45:21.539Z,22.45
2023-05-19T14:47:47.715Z,22.37
2023-05-19T14:48:57.757Z,22.37
2023-05-19T14:51:24.147Z,22.48
2023-05-19T14:52:39.652Z,22.36
2023-05-19T14:53:50.319Z,22.48
2023-05-19T14:56:15.116Z,21.95
2023-05-19T14:58:39.799Z,22.12
2023-05-19T15:01:05.081Z,22.36
2023-05-19T15:03:29.184Z,22.12
2023-05-19T15:05:52.859Z,22.24
2023-05-19T15:08:22.567Z,21.74
2023-05-19T15:09:32.190Z,21.64
2023-05-19T15:11:57.591Z,21.55
2023-05-19T15:13:08.240Z,21.45
2023-05-19T15:15:32.236Z,21.72
2023-05-19T15:17:58.157Z,21.54
2023-05-19T15:20:45.696Z,21.61
2023-05-19T15:23:10.940Z,21.80
2023-05-19T15:25:36.048Z,22.01
2023-05-19T15:28:00.959Z,22.14
2023-05-19T15:30:24.550Z,22.26
2023-05-19T15:32:49.319Z,22.30
2023-05-19T15:35:13.154Z,22.22
2023-05-19T15:36:23.525Z,21.92
2023-05-19T15:38:50.523Z,21.90
2023-05-19T15:41:15.378Z,21.75
2023-05-19T15:43:40.989Z,21.78
2023-05-19T15:44:49.832Z,21.71
2023-05-19T15:47:13.542Z,21.88
2023-05-19T15:49:38.199Z,21.83
2023-05-19T15:52:09.333Z,21.83
2023-05-19T15:53:20.105Z,21.73
2023-05-19T15:56:13.957Z,21.80
2023-05-19T15:57:23.120Z,21.76
2023-05-19T15:59:47.730Z,21.84
2023-05-19T16:02:15.051Z,21.66
2023-05-19T16:04:39.982Z,21.67
2023-05-19T16:07:03.757Z,21.82
2023-05-19T16:09:33.753Z,21.75
2023-05-19T16:11:58.528Z,21.56
2023-05-19T16:14:27.453Z,21.29
2023-05-19T16:16:52.377Z,21.21
2023-05-19T16:18:02.427Z,21.12
2023-05-19T16:19:11.145Z,21.11
2023-05-19T16:21:40.533Z,21.35
2023-05-19T16:24:05.261Z,21.16
2023-05-19T16:26:30.008Z,20.93
2023-05-19T16:28:55.734Z,21.08
2023-05-19T16:31:22.397Z,21.04
2023-05-19T16:33:47.353Z,21.06
2023-05-19T16:34:56.083Z,20.94
2023-05-19T16:36:07.032Z,20.88
2023-05-19T16:38:30.741Z,20.92
2023-05-19T16:40:54.908Z,20.94
2023-05-19T16:43:21.498Z,20.74
2023-05-19T16:45:47.304Z,20.73
2023-05-19T16:48:12.950Z,20.86
2023-05-19T16:50:37.313Z,20.89
2023-05-19T16:51:48.883Z,20.67
2023-05-19T16:54:14.612Z,20.85
2023-05-19T16:55:24.928Z,20.84
2023-05-19T16:57:49.647Z,21.00
2023-05-19T17:00:16.566Z,20.86
2023-05-19T17:01:26.072Z,20.77
2023-05-19T17:03:50.741Z,20.89
2023-05-19T17:06:15.734Z,20.69
2023-05-19T17:08:42.389Z,20.69
2023-05-19T17:11:07.191Z,20.66
2023-05-19T17:13:32.776Z,20.68
2023-05-19T17:14:43.032Z,20.53
2023-05-19T17:17:10.058Z,20.60
2023-05-19T17:19:35.224Z,20.68
2023-05-19T17:22:01.206Z,20.67
2023-05-19T17:23:10.580Z,20.55
2023-05-19T17:25:34.217Z,20.63
2023-05-19T17:27:59.576Z,20.71
2023-05-19T17:29:09.005Z,20.51
2023-05-19T17:31:35.805Z,20.72
2023-05-19T17:32:46.006Z,20.67
2023-05-19T17:35:12.295Z,20.70
2023-05-19T17:37:39.828Z,20.58
2023-05-19T17:40:04.587Z,20.62
2023-05-19T17:42:32.028Z,20.48
2023-05-19T17:43:42.330Z,20.33
2023-05-19T17:46:07.107Z,20.41
2023-05-19T17:48:32.099Z,20.45
2023-05-19T17:50:57.744Z,20.44
2023-05-19T17:53:25.084Z,20.38
2023-05-19T17:54:36.336Z,20.25
2023-05-19T17:57:08.405Z,20.31
2023-05-19T17:59:34.670Z,20.36
2023-05-19T18:02:00.030Z,20.29
2023-05-19T18:04:26.282Z,20.34
2023-05-19T18:06:52.111Z,20.19
2023-05-19T18:09:27.890Z,20.20
2023-05-19T18:11:55.108Z,20.22
2023-05-19T18:14:21.079Z,20.24
2023-05-19T18:16:50.070Z,20.10
2023-05-19T18:19:21.645Z,20.10
2023-05-19T18:21:47.814Z,20.08
2023-05-19T18:24:16.353Z,19.91
2023-05-19T18:26:41.566Z,19.83
2023-05-19T18:29:11.419Z,19.78
2023-05-19T18:31:38.500Z,19.79
2023-05-19T18:34:05.107Z,19.77
2023-05-19T18:36:29.587Z,19.76
2023-05-19T18:38:56.818Z,19.65
2023-05-19T18:41:22.128Z,19.64
2023-05-19T18:43:47.631Z,19.68
2023-05-19T18:46:12.840Z,19.67
2023-05-19T18:48:38.622Z,19.74
2023-05-19T18:51:03.425Z,19.65
2023-05-19T18:53:28.494Z,19.61
2023-05-19T18:55:53.130Z,19.58
2023-05-19T18:58:18.507Z,19.45
2023-05-19T19:00:42.752Z,19.48
2023-05-19T19:03:11.455Z,19.54
2023-05-19T19:05:36.531Z,19.33
2023-05-19T19:08:05.541Z,19.25
2023-05-19T19:10:32.154Z,19.26
2023-05-19T19:12:57.544Z,19.21
2023-05-19T19:15:24.670Z,19.23
2023-05-19T19:17:49.037Z,19.21
2023-05-19T19:20:14.577Z,19.27
2023-05-19T19:22:39.157Z,19.26
2023-05-19T19:23:49.009Z,19.18
2023-05-19T19:26:13.004Z,19.24
2023-05-19T19:28:38.803Z,19.19
2023-05-19T19:31:03.304Z,19.28
2023-05-19T19:33:27.647Z,19.24
2023-05-19T19:35:51.972Z,19.13
2023-05-19T19:38:15.808Z,19.11
2023-05-19T19:40:39.609Z,19.25
2023-05-19T19:43:05.302Z,19.40
2023-05-19T19:45:30.102Z,19.24
2023-05-19T19:47:54.087Z,19.17
2023-05-19T19:50:18.145Z,19.28
2023-05-19T19:51:27.542Z,19.15
2023-05-19T19:53:52.058Z,19.36
2023-05-19T19:56:16.891Z,19.31
2023-05-19T19:58:42.755Z,19.13
2023-05-19T20:01:11.278Z,19.06
2023-05-19T20:03:35.467Z,18.89
2023-05-19T20:06:01.405Z,18.66
2023-05-19T20:08:26.845Z,18.70
2023-05-19T20:09:37.423Z,18.58
2023-05-19T20:12:06.187Z,18.69
2023-05-19T20:14:33.848Z,18.48
2023-05-19T20:15:44.261Z,18.32
2023-05-19T20:18:10.712Z,18.37
2023-05-19T20:19:19.614Z,18.30
2023-05-19T20:21:45.295Z,18.27
2023-05-19T20:24:09.068Z,18.32
2023-05-19T20:25:17.781Z,18.24
2023-05-19T20:26:28.584Z,18.38
2023-05-19T20:28:52.789Z,18.38
2023-05-19T20:31:18.166Z,18.23
2023-05-19T20:32:27.926Z,18.21
2023-05-19T20:33:37.047Z,18.14
2023-05-19T20:36:01.006Z,18.21
2023-05-19T20:38:25.122Z,18.19
2023-05-19T20:40:51.342Z,18.15
2023-05-19T20:42:01.577Z,18.04
2023-05-19T20:43:11.853Z,18.09
2023-05-19T20:45:37.412Z,18.21
2023-05-19T20:48:05.295Z,18.30
2023-05-19T20:50:30.371Z,18.25
2023-05-19T20:52:55.454Z,18.15
2023-05-19T20:55:21.652Z,18.17
2023-05-19T20:56:40.153Z,18.13
2023-05-19T20:59:03.713Z,18.19
2023-05-19T21:01:30.358Z,18.18
2023-05-19T21:03:54.178Z,18.25
2023-05-19T21:06:18.727Z,18.29
2023-05-19T21:08:42.498Z,18.25
2023-05-19T21:11:08.000Z,18.35
2023-05-19T21:13:32.309Z,18.31
2023-05-19T21:15:56.919Z,18.36
2023-05-19T21:17:06.979Z,18.29
2023-05-19T21:19:37.111Z,18.36
2023-05-19T21:22:01.642Z,18.30
2023-05-19T21:24:25.233Z,18.25
2023-05-19T21:26:50.837Z,18.14
2023-05-19T21:29:14.850Z,18.14
2023-05-19T21:31:41.824Z,18.11
2023-05-19T21:34:09.043Z,18.06
2023-05-19T21:36:34.629Z,18.03
2023-05-19T21:39:00.001Z,18.05
2023-05-19T21:41:25.832Z,17.99
2023-05-19T21:43:50.671Z,17.81
2023-05-19T21:45:00.473Z,17.78
2023-05-19T21:47:27.386Z,17.85
2023-05-19T21:48:36.555Z,17.65
2023-05-19T21:51:01.380Z,17.66
2023-05-19T21:53:26.691Z,17.66
2023-05-19T21:55:51.307Z,17.68
2023-05-19T21:57:00.808Z,17.59
2023-05-19T21:59:24.652Z,17.55
2023-05-19T22:01:49.644Z,17.66
2023-05-19T22:04:16.630Z,17.70
2023-05-19T22:05:26.964Z,17.58
2023-05-19T22:07:51.738Z,17.77
2023-05-19T22:10:18.133Z,17.78
2023-05-19T22:12:42.354Z,17.86
2023-05-19T22:15:10.589Z,17.70
2023-05-19T22:17:37.524Z,17.67
2023-05-19T22:18:47.252Z,17.59
2023-05-19T22:21:11.027Z,17.60
2023-05-19T22:23:35.026Z,17.44
2023-05-19T22:25:59.654Z,17.54
2023-05-19T22:27:09.202Z,17.48
2023-05-19T22:29:39.124Z,17.47
2023-05-19T22:32:10.986Z,17.58
2023-05-19T22:34:34.588Z,17.34
2023-05-19T22:36:58.671Z,17.31
2023-05-19T22:39:23.428Z,17.60
2023-05-19T22:41:48.521Z,17.67
2023-05-19T22:44:16.475Z,17.59
2023-05-19T22:46:41.069Z,17.57
2023-05-19T22:49:05.453Z,17.63
2023-05-19T22:51:32.707Z,17.47
2023-05-19T22:53:56.401Z,17.61
2023-05-19T22:56:23.719Z,17.36
2023-05-19T22:58:48.531Z,17.35
2023-05-19T23:01:14.538Z,17.50
2023-05-19T23:02:23.628Z,17.28
2023-05-19T23:04:47.387Z,17.32
2023-05-19T23:07:11.482Z,17.28
2023-05-19T23:09:36.648Z,17.21
2023-05-19T23:12:01.502Z,17.30
2023-05-19T23:13:12.673Z,17.20
2023-05-19T23:14:21.675Z,17.16
2023-05-19T23:16:46.857Z,17.08
2023-05-19T23:19:12.285Z,17.05
2023-05-19T23:21:37.242Z,17.14
2023-05-19T23:24:03.170Z,17.28
2023-05-19T23:26:27.904Z,17.37
2023-05-19T23:28:53.849Z,17.47
2023-05-19T23:31:19.149Z,17.44
2023-05-19T23:33:43.619Z,17.32
2023-05-19T23:36:10.015Z,17.11
2023-05-19T23:37:20.097Z,17.16
2023-05-19T23:39:44.692Z,17.15
2023-05-19T23:42:10.269Z,17.03
2023-05-19T23:43:26.770Z,16.94
2023-05-19T23:44:42.157Z,17.02
2023-05-19T23:45:51.986Z,16.95
2023-05-19T23:47:00.822Z,17.12
2023-05-19T23:49:26.828Z,17.08
2023-05-19T23:51:51.694Z,16.97
2023-05-19T23:54:16.946Z,17.06
2023-05-19T23:56:40.553Z,16.98
2023-05-19T23:59:05.822Z,16.90
